createdAt,value
2022-12-06T00:00:37.314Z,2.26
2022-12-06T00:05:46.395Z,2.29
2022-12-06T00:10:49.741Z,2.29
2022-12-06T00:15:52.527Z,2.25
2022-12-06T00:20:55.442Z,2.27
2022-12-06T00:26:01.180Z,2.28
2022-12-06T00:31:07.445Z,2.30
2022-12-06T00:36:25.178Z,2.23
2022-12-06T00:41:28.110Z,2.21
2022-12-06T00:46:32.851Z,2.26
2022-12-06T00:51:38.120Z,2.22
2022-12-06T00:56:42.723Z,2.20
2022-12-06T01:01:46.773Z,2.25
2022-12-06T01:06:51.730Z,2.28
2022-12-06T01:11:55.796Z,2.34
2022-12-06T01:16:59.023Z,2.31
2022-12-06T01:22:01.961Z,2.33
2022-12-06T01:27:06.006Z,2.37
2022-12-06T01:32:09.581Z,2.36
2022-12-06T01:37:12.489Z,2.31
2022-12-06T01:42:16.226Z,2.26
2022-12-06T01:47:25.488Z,2.25
2022-12-06T01:52:38.073Z,2.24
2022-12-06T01:57:41.128Z,2.24
2022-12-06T02:02:45.283Z,2.28
2022-12-06T02:07:48.372Z,2.31
2022-12-06T02:12:54.538Z,2.27
2022-12-06T02:18:09.114Z,2.24
2022-12-06T02:23:36.284Z,2.21
2022-12-06T02:29:23.041Z,2.19
2022-12-06T02:34:37.128Z,2.14
2022-12-06T02:39:59.788Z,2.13
2022-12-06T02:45:10.557Z,2.15
2022-12-06T02:50:18.475Z,2.17
2022-12-06T02:55:22.500Z,2.16
2022-12-06T03:00:38.033Z,2.17
2022-12-06T03:05:53.111Z,2.16
2022-12-06T03:10:59.654Z,2.15
2022-12-06T03:16:24.304Z,2.16
2022-12-06T03:21:41.348Z,2.13
2022-12-06T03:26:46.479Z,2.14
2022-12-06T03:31:52.873Z,2.17
2022-12-06T03:36:56.205Z,2.13
2022-12-06T03:42:01.229Z,2.04
2022-12-06T03:47:08.885Z,2.02
2022-12-06T03:52:12.925Z,2.05
2022-12-06T03:57:16.808Z,2.07
2022-12-06T04:02:19.697Z,2.07
2022-12-06T04:07:22.742Z,2.13
2022-12-06T04:12:44.664Z,2.14
2022-12-06T04:18:06.199Z,2.08
2022-12-06T04:23:09.073Z,2.05
2022-12-06T04:28:31.168Z,2.09
2022-12-06T04:33:52.832Z,2.08
2022-12-06T04:38:56.411Z,2.08
2022-12-06T04:43:59.308Z,2.09
2022-12-06T04:49:02.295Z,2.06
2022-12-06T04:54:05.693Z,1.99
2022-12-06T04:59:08.618Z,1.96
2022-12-06T05:04:11.678Z,2.00
2022-12-06T05:09:14.929Z,2.02
2022-12-06T05:14:17.763Z,2.06
2022-12-06T05:19:20.634Z,2.06
2022-12-06T05:24:25.063Z,2.02
2022-12-06T05:29:27.873Z,2.03
2022-12-06T05:34:31.793Z,2.05
2022-12-06T05:39:34.901Z,2.01
2022-12-06T05:44:38.004Z,1.97
2022-12-06T05:49:42.039Z,1.98
2022-12-06T05:54:44.838Z,2.00
2022-12-06T05:59:50.761Z,2.04
2022-12-06T06:04:56.231Z,2.04
2022-12-06T06:10:00.038Z,2.04
2022-12-06T06:15:07.264Z,2.05
2022-12-06T06:20:13.825Z,2.00
2022-12-06T06:25:17.310Z,2.00
2022-12-06T06:30:20.312Z,1.99
2022-12-06T06:35:23.150Z,2.04
2022-12-06T06:40:27.391Z,2.00
2022-12-06T06:45:30.292Z,1.98
2022-12-06T06:50:33.271Z,2.02
2022-12-06T06:55:36.829Z,2.03
2022-12-06T07:00:40.853Z,2.04
2022-12-06T07:06:02.799Z,1.98
2022-12-06T07:11:13.137Z,1.97
2022-12-06T07:16:22.160Z,2.04
2022-12-06T07:21:27.156Z,2.08
2022-12-06T07:26:30.008Z,2.07
2022-12-06T07:31:35.475Z,2.07
2022-12-06T07:36:38.472Z,2.12
2022-12-06T07:42:02.548Z,2.14
2022-12-06T07:47:13.370Z,2.09
2022-12-06T07:52:16.519Z,2.16
2022-12-06T07:57:21.710Z,2.24
2022-12-06T08:02:26.089Z,2.26
2022-12-06T08:07:29.218Z,2.28
2022-12-06T08:12:32.283Z,2.29
2022-12-06T08:17:35.296Z,2.32
2022-12-06T08:22:38.972Z,2.33
2022-12-06T08:27:42.290Z,2.39
2022-12-06T08:32:45.946Z,2.46
2022-12-06T08:37:48.779Z,2.45
2022-12-06T08:42:53.969Z,2.43
2022-12-06T08:47:57.622Z,2.46
2022-12-06T08:53:03.560Z,2.52
2022-12-06T08:58:13.183Z,2.55
2022-12-06T09:03:20.484Z,2.56
2022-12-06T09:08:25.001Z,2.60
2022-12-06T09:13:28.483Z,2.59
2022-12-06T09:18:31.265Z,2.55
2022-12-06T09:23:39.212Z,2.59
2022-12-06T09:28:43.302Z,2.70
2022-12-06T09:33:48.539Z,2.81
2022-12-06T09:39:23.038Z,2.87
2022-12-06T09:44:40.965Z,2.86
2022-12-06T09:50:04.011Z,2.88
2022-12-06T09:55:15.621Z,2.87
2022-12-06T10:00:24.289Z,2.80
2022-12-06T10:06:00.776Z,2.73
2022-12-06T10:11:48.783Z,2.69
2022-12-06T10:17:18.350Z,2.67
2022-12-06T10:23:31.069Z,2.71
2022-12-06T10:29:23.223Z,2.73
2022-12-06T10:34:45.781Z,2.73
2022-12-06T10:40:18.046Z,2.76
2022-12-06T10:46:09.326Z,2.80
2022-12-06T10:51:20.384Z,2.89
2022-12-06T10:56:52.857Z,2.90
2022-12-06T11:01:59.740Z,2.88
2022-12-06T11:07:16.133Z,2.92
2022-12-06T11:12:34.181Z,2.89
2022-12-06T11:17:38.642Z,2.86
2022-12-06T11:23:19.395Z,2.92
2022-12-06T11:28:44.168Z,2.92
2022-12-06T11:33:47.182Z,2.90
2022-12-06T11:38:52.255Z,2.95
2022-12-06T11:43:56.065Z,2.97
2022-12-06T11:49:13.401Z,2.99
2022-12-06T11:54:25.206Z,3.06
2022-12-06T11:59:31.934Z,3.12
2022-12-06T12:04:45.552Z,3.09
2022-12-06T12:09:54.897Z,3.06
2022-12-06T12:14:58.833Z,3.05
2022-12-06T12:20:07.881Z,3.03
2022-12-06T12:25:25.024Z,3.02
2022-12-06T12:30:42.364Z,2.96
2022-12-06T12:36:17.682Z,2.98
2022-12-06T12:41:41.230Z,3.00
2022-12-06T12:47:03.571Z,2.99
2022-12-06T12:52:36.902Z,3.03
2022-12-06T12:57:41.228Z,3.03
2022-12-06T13:03:14.214Z,3.09
2022-12-06T13:08:37.473Z,3.06
2022-12-06T13:13:44.796Z,3.05
2022-12-06T13:18:51.439Z,3.09
2022-12-06T13:24:23.059Z,3.20
2022-12-06T13:30:06.392Z,3.23
2022-12-06T13:35:25.739Z,3.29
2022-12-06T13:40:46.637Z,3.30
2022-12-06T13:45:50.742Z,3.24
2022-12-06T13:51:04.429Z,3.22
2022-12-06T13:56:34.949Z,3.20
2022-12-06T14:01:49.215Z,3.14
2022-12-06T14:12:27.773Z,3.15
2022-12-06T14:23:28.944Z,3.08
2022-12-06T14:28:35.996Z,3.08
2022-12-06T14:33:39.204Z,3.07
2022-12-06T14:38:43.013Z,3.10
2022-12-06T14:43:49.074Z,3.13
2022-12-06T14:49:10.988Z,3.14
2022-12-06T14:54:20.058Z,3.12
2022-12-06T15:00:10.903Z,3.13
2022-12-06T15:04:49.765Z,3.11
2022-12-06T15:09:55.088Z,3.07
2022-12-06T15:14:57.965Z,3.06
2022-12-06T15:20:01.068Z,3.06
2022-12-06T15:25:04.918Z,3.06
2022-12-06T15:30:13.739Z,3.09
2022-12-06T15:35:18.248Z,3.13
2022-12-06T15:40:21.449Z,3.16
2022-12-06T15:45:24.621Z,3.15
2022-12-06T15:50:30.490Z,3.05
2022-12-06T15:55:35.114Z,2.96
2022-12-06T16:00:38.534Z,2.95
2022-12-06T16:05:41.642Z,2.95
2022-12-06T16:11:13.340Z,2.87
2022-12-06T16:16:08.610Z,2.87
2022-12-06T16:21:26.876Z,2.83
2022-12-06T16:26:35.334Z,2.79
2022-12-06T16:31:41.159Z,2.77
2022-12-06T16:37:01.345Z,2.71
2022-12-06T16:42:05.195Z,2.66
2022-12-06T16:47:08.233Z,2.69
2022-12-06T16:52:16.923Z,2.65
2022-12-06T16:57:21.304Z,2.63
2022-12-06T17:02:32.048Z,2.63
2022-12-06T17:07:39.298Z,2.63
2022-12-06T17:12:43.277Z,2.59
2022-12-06T17:17:46.426Z,2.60
2022-12-06T17:22:51.417Z,2.64
2022-12-06T17:27:54.622Z,2.67
2022-12-06T17:32:57.505Z,2.70
2022-12-06T17:38:01.856Z,2.72
2022-12-06T17:43:04.700Z,2.70
2022-12-06T17:48:07.991Z,2.71
2022-12-06T17:53:12.453Z,2.80
2022-12-06T17:58:15.491Z,2.75
2022-12-06T18:03:18.535Z,2.70
2022-12-06T18:08:21.466Z,2.71
2022-12-06T18:13:25.429Z,2.62
2022-12-06T18:18:28.269Z,2.46
2022-12-06T18:23:40.641Z,2.32
2022-12-06T18:28:59.564Z,2.24
2022-12-06T18:34:02.818Z,2.18
2022-12-06T18:39:10.975Z,2.17
2022-12-06T18:44:17.202Z,2.29
2022-12-06T18:49:20.054Z,2.25
2022-12-06T18:54:24.484Z,2.14
2022-12-06T18:59:28.046Z,2.18
2022-12-06T19:04:31.714Z,2.30
2022-12-06T19:09:34.579Z,2.25
2022-12-06T19:14:37.394Z,2.29
2022-12-06T19:19:41.489Z,2.35
2022-12-06T19:24:44.253Z,2.46
2022-12-06T19:29:47.235Z,2.51
2022-12-06T19:34:50.529Z,2.50
2022-12-06T19:39:53.427Z,2.50
2022-12-06T19:44:56.690Z,2.64
2022-12-06T19:49:59.798Z,2.61
2022-12-06T19:55:03.157Z,2.38
2022-12-06T20:00:07.103Z,2.32
2022-12-06T20:05:10.032Z,2.44
2022-12-06T20:10:12.940Z,2.44
2022-12-06T20:15:16.153Z,2.37
2022-12-06T20:20:20.975Z,2.33
2022-12-06T20:25:24.486Z,2.35
2022-12-06T20:30:27.878Z,2.31
2022-12-06T20:35:31.232Z,2.28
2022-12-06T20:40:35.310Z,2.23
2022-12-06T20:45:38.991Z,2.20
2022-12-06T20:50:41.887Z,2.15
2022-12-06T20:55:48.174Z,2.08
2022-12-06T21:00:51.084Z,2.06
2022-12-06T21:06:01.520Z,2.02
2022-12-06T21:16:31.138Z,2.00
2022-12-06T21:21:36.481Z,2.00
2022-12-06T21:26:39.402Z,1.85
2022-12-06T21:31:42.285Z,1.78
2022-12-06T21:36:45.362Z,1.73
2022-12-06T21:41:48.309Z,1.69
2022-12-06T21:46:53.248Z,1.72
2022-12-06T21:52:02.226Z,1.69
2022-12-06T21:57:12.612Z,1.52
2022-12-06T22:02:15.898Z,1.36
2022-12-06T22:07:19.023Z,1.25
2022-12-06T22:12:22.681Z,1.16
2022-12-06T22:17:25.601Z,1.12
2022-12-06T22:22:28.753Z,1.03
2022-12-06T22:27:31.769Z,1.01
2022-12-06T22:32:34.741Z,1.03
2022-12-06T22:37:37.683Z,1.04
2022-12-06T22:42:40.537Z,0.96
2022-12-06T22:47:43.429Z,0.94
2022-12-06T22:52:46.817Z,0.94
2022-12-06T22:57:49.699Z,0.97
2022-12-06T23:03:50.152Z,0.94
2022-12-06T23:09:12.810Z,0.93
2022-12-06T23:43:05.200Z,0.89
2022-12-06T23:48:25.743Z,0.92
